sensor_id;sensor_type;location;lat;lon;timestamp;pressure;altitude;pressure_sealevel;temperature;humidity
63405;BME280;49541;57.840;12.306;2023-01-29T00:04:08;100785.25;;;1.98;82.60
63405;BME280;49541;57.840;12.306;2023-01-29T00:09:09;100784.38;;;1.98;84.20
63405;BME280;49541;57.840;12.306;2023-01-29T00:14:09;100787.31;;;2.28;83.14
63405;BME280;49541;57.840;12.306;2023-01-29T00:19:09;100774.81;;;2.68;83.01
63405;BME280;49541;57.840;12.306;2023-01-29T00:24:10;100765.91;;;2.36;83.06
63405;BME280;49541;57.840;12.306;2023-01-29T00:29:10;100762.44;;;2.35;84.00
63405;BME280;49541;57.840;12.306;2023-01-29T00:34:10;100749.16;;;1.66;87.48
63405;BME280;49541;57.840;12.306;2023-01-29T00:39:11;100746.78;;;1.78;88.87
63405;BME280;49541;57.840;12.306;2023-01-29T00:44:11;100737.16;;;2.67;85.99
63405;BME280;49541;57.840;12.306;2023-01-29T00:49:30;100748.06;;;3.26;82.86
63405;BME280;49541;57.840;12.306;2023-01-29T00:54:30;100748.84;;;3.13;82.74
63405;BME280;49541;57.840;12.306;2023-01-29T00:59:30;100732.97;;;2.97;83.74
63405;BME280;49541;57.840;12.306;2023-01-29T01:04:30;100744.41;;;3.13;82.52
63405;BME280;49541;57.840;12.306;2023-01-29T01:09:30;100744.06;;;3.03;83.15
63405;BME280;49541;57.840;12.306;2023-01-29T01:14:49;100741.72;;;3.15;81.82
63405;BME280;49541;57.840;12.306;2023-01-29T01:19:49;100732.06;;;2.98;82.52
63405;BME280;49541;57.840;12.306;2023-01-29T01:24:50;100735.72;;;2.95;82.21
63405;BME280;49541;57.840;12.306;2023-01-29T01:29:50;100728.81;;;2.59;83.28
63405;BME280;49541;57.840;12.306;2023-01-29T01:34:50;100724.25;;;2.45;84.73
63405;BME280;49541;57.840;12.306;2023-01-29T01:39:51;100718.22;;;2.43;85.16
63405;BME280;49541;57.840;12.306;2023-01-29T01:49:55;100721.63;;;2.96;84.12
63405;BME280;49541;57.840;12.306;2023-01-29T01:54:57;100727.66;;;2.65;84.69
63405;BME280;49541;57.840;12.306;2023-01-29T01:59:58;100706.44;;;2.68;86.23
63405;BME280;49541;57.840;12.306;2023-01-29T02:05:09;100699.94;;;3.24;84.67
63405;BME280;49541;57.840;12.306;2023-01-29T02:10:30;100672.88;;;3.54;79.83
63405;BME280;49541;57.840;12.306;2023-01-29T02:15:36;100669.75;;;3.32;81.49
63405;BME280;49541;57.840;12.306;2023-01-29T02:20:43;100679.81;;;3.71;81.39
63405;BME280;49541;57.840;12.306;2023-01-29T02:25:55;100654.66;;;3.65;80.05
63405;BME280;49541;57.840;12.306;2023-01-29T02:51:13;100624.38;;;3.26;83.13
63405;BME280;49541;57.840;12.306;2023-01-29T02:56:16;100636.03;;;3.06;84.66
63405;BME280;49541;57.840;12.306;2023-01-29T03:01:19;100629.31;;;3.48;84.85
63405;BME280;49541;57.840;12.306;2023-01-29T03:06:23;100632.84;;;3.63;83.31
63405;BME280;49541;57.840;12.306;2023-01-29T03:11:29;100610.22;;;3.13;85.42
63405;BME280;49541;57.840;12.306;2023-01-29T03:16:32;100615.00;;;3.68;84.56
63405;BME280;49541;57.840;12.306;2023-01-29T03:21:57;100599.88;;;4.17;81.45
63405;BME280;49541;57.840;12.306;2023-01-29T03:27:00;100605.03;;;3.59;83.97
63405;BME280;49541;57.840;12.306;2023-01-29T03:32:20;100599.56;;;3.62;84.95
63405;BME280;49541;57.840;12.306;2023-01-29T03:37:25;100589.03;;;3.62;85.16
63405;BME280;49541;57.840;12.306;2023-01-29T03:47:50;100580.78;;;3.53;87.41
63405;BME280;49541;57.840;12.306;2023-01-29T03:53:07;100571.97;;;3.84;88.48
63405;BME280;49541;57.840;12.306;2023-01-29T03:58:55;100566.66;;;4.14;88.95
63405;BME280;49541;57.840;12.306;2023-01-29T04:03:40;100564.41;;;4.22;89.45
63405;BME280;49541;57.840;12.306;2023-01-29T04:08:44;100566.50;;;4.31;89.26
63405;BME280;49541;57.840;12.306;2023-01-29T04:13:45;100567.06;;;4.22;91.33
63405;BME280;49541;57.840;12.306;2023-01-29T04:18:46;100573.38;;;4.34;91.76
63405;BME280;49541;57.840;12.306;2023-01-29T04:23:47;100541.91;;;4.17;92.78
63405;BME280;49541;57.840;12.306;2023-01-29T04:33:59;100541.38;;;4.26;93.24
63405;BME280;49541;57.840;12.306;2023-01-29T04:59:47;100491.81;;;4.60;92.97
63405;BME280;49541;57.840;12.306;2023-01-29T05:04:48;100481.84;;;4.50;93.07
63405;BME280;49541;57.840;12.306;2023-01-29T05:09:49;100470.00;;;4.43;93.24
63405;BME280;49541;57.840;12.306;2023-01-29T05:14:50;100462.94;;;4.44;93.86
63405;BME280;49541;57.840;12.306;2023-01-29T05:19:52;100446.19;;;4.72;92.94
63405;BME280;49541;57.840;12.306;2023-01-29T05:24:54;100441.28;;;4.80;92.02
63405;BME280;49541;57.840;12.306;2023-01-29T05:29:54;100428.97;;;4.66;93.05
63405;BME280;49541;57.840;12.306;2023-01-29T05:34:55;100438.31;;;4.58;93.45
63405;BME280;49541;57.840;12.306;2023-01-29T05:39:55;100448.84;;;4.58;93.37
63405;BME280;49541;57.840;12.306;2023-01-29T05:44:55;100448.22;;;4.81;92.16
63405;BME280;49541;57.840;12.306;2023-01-29T05:49:56;100431.66;;;4.79;92.52
63405;BME280;49541;57.840;12.306;2023-01-29T05:54:56;100428.66;;;4.98;91.67
63405;BME280;49541;57.840;12.306;2023-01-29T05:59:56;100410.75;;;4.76;92.71
63405;BME280;49541;57.840;12.306;2023-01-29T06:04:56;100409.66;;;4.66;93.05
63405;BME280;49541;57.840;12.306;2023-01-29T06:09:56;100408.41;;;4.71;93.47
63405;BME280;49541;57.840;12.306;2023-01-29T06:14:56;100378.75;;;4.68;93.79
63405;BME280;49541;57.840;12.306;2023-01-29T06:19:57;100393.81;;;4.93;93.26
63405;BME280;49541;57.840;12.306;2023-01-29T06:24:57;100415.38;;;5.00;92.26
63405;BME280;49541;57.840;12.306;2023-01-29T06:29:57;100418.53;;;5.05;92.07
63405;BME280;49541;57.840;12.306;2023-01-29T06:34:57;100426.09;;;4.97;92.80
63405;BME280;49541;57.840;12.306;2023-01-29T06:39:57;100412.50;;;5.03;93.17
63405;BME280;49541;57.840;12.306;2023-01-29T06:44:57;100415.38;;;5.00;93.27
63405;BME280;49541;57.840;12.306;2023-01-29T06:49:58;100408.19;;;5.02;93.83
63405;BME280;49541;57.840;12.306;2023-01-29T06:54:58;100376.53;;;5.02;94.16
63405;BME280;49541;57.840;12.306;2023-01-29T06:59:58;100373.59;;;5.06;93.74
63405;BME280;49541;57.840;12.306;2023-01-29T07:04:58;100355.44;;;5.02;94.57
63405;BME280;49541;57.840;12.306;2023-01-29T07:09:58;100367.91;;;5.12;94.71
63405;BME280;49541;57.840;12.306;2023-01-29T07:14:58;100363.38;;;5.15;93.75
63405;BME280;49541;57.840;12.306;2023-01-29T07:19:59;100357.97;;;5.16;93.49
63405;BME280;49541;57.840;12.306;2023-01-29T07:24:59;100343.59;;;5.07;93.90
63405;BME280;49541;57.840;12.306;2023-01-29T07:29:59;100330.72;;;5.03;94.09
63405;BME280;49541;57.840;12.306;2023-01-29T07:34:59;100316.38;;;5.07;94.19
63405;BME280;49541;57.840;12.306;2023-01-29T07:39:59;100307.38;;;5.09;94.33
63405;BME280;49541;57.840;12.306;2023-01-29T07:44:59;100306.97;;;5.16;94.16
63405;BME280;49541;57.840;12.306;2023-01-29T07:50:00;100292.94;;;5.15;94.82
63405;BME280;49541;57.840;12.306;2023-01-29T07:55:00;100291.88;;;5.18;95.32
63405;BME280;49541;57.840;12.306;2023-01-29T08:00:00;100290.06;;;5.18;94.95
63405;BME280;49541;57.840;12.306;2023-01-29T08:05:00;100274.78;;;5.23;94.73
63405;BME280;49541;57.840;12.306;2023-01-29T08:10:00;100277.31;;;5.12;94.75
63405;BME280;49541;57.840;12.306;2023-01-29T08:15:01;100284.06;;;5.16;94.53
63405;BME280;49541;57.840;12.306;2023-01-29T08:20:01;100271.19;;;5.11;94.41
63405;BME280;49541;57.840;12.306;2023-01-29T08:25:01;100255.25;;;5.13;94.00
63405;BME280;49541;57.840;12.306;2023-01-29T08:30:01;100257.78;;;5.15;93.65
63405;BME280;49541;57.840;12.306;2023-01-29T08:35:02;100260.53;;;5.13;94.07
63405;BME280;49541;57.840;12.306;2023-01-29T08:40:02;100243.03;;;4.99;94.81
63405;BME280;49541;57.840;12.306;2023-01-29T08:45:02;100240.47;;;4.98;95.04
63405;BME280;49541;57.840;12.306;2023-01-29T08:50:03;100239.75;;;4.96;94.63
63405;BME280;49541;57.840;12.306;2023-01-29T08:55:04;100261.78;;;4.95;94.26
63405;BME280;49541;57.840;12.306;2023-01-29T09:00:04;100250.72;;;4.89;94.08
63405;BME280;49541;57.840;12.306;2023-01-29T09:05:05;100267.06;;;5.07;93.21
63405;BME280;49541;57.840;12.306;2023-01-29T09:10:07;100264.66;;;5.17;92.37
63405;BME280;49541;57.840;12.306;2023-01-29T09:15:07;100270.75;;;5.05;92.13
63405;BME280;49541;57.840;12.306;2023-01-29T09:20:08;100272.88;;;5.12;92.47
63405;BME280;49541;57.840;12.306;2023-01-29T09:25:08;100273.72;;;5.13;92.40
63405;BME280;49541;57.840;12.306;2023-01-29T09:30:09;100279.84;;;5.13;92.08
63405;BME280;49541;57.840;12.306;2023-01-29T09:35:10;100272.22;;;5.34;91.31
63405;BME280;49541;57.840;12.306;2023-01-29T09:40:16;100266.31;;;5.18;91.74
63405;BME280;49541;57.840;12.306;2023-01-29T09:45:20;100269.69;;;5.20;91.61
63405;BME280;49541;57.840;12.306;2023-01-29T09:50:25;100258.63;;;5.15;91.91
63405;BME280;49541;57.840;12.306;2023-01-29T09:55:27;100246.38;;;5.14;91.96
63405;BME280;49541;57.840;12.306;2023-01-29T10:00:36;100236.34;;;5.19;91.75
63405;BME280;49541;57.840;12.306;2023-01-29T10:05:44;100225.78;;;5.19;91.92
63405;BME280;49541;57.840;12.306;2023-01-29T10:10:50;100211.84;;;5.17;91.42
63405;BME280;49541;57.840;12.306;2023-01-29T10:21:10;100200.66;;;5.26;91.47
63405;BME280;49541;57.840;12.306;2023-01-29T10:26:15;100197.88;;;5.41;90.20
63405;BME280;49541;57.840;12.306;2023-01-29T10:31:24;100167.69;;;5.32;90.49
63405;BME280;49541;57.840;12.306;2023-01-29T10:51:53;100129.03;;;5.31;90.25
63405;BME280;49541;57.840;12.306;2023-01-29T11:02:10;100096.53;;;5.30;89.29
63405;BME280;49541;57.840;12.306;2023-01-29T11:07:13;100098.22;;;5.31;88.20
63405;BME280;49541;57.840;12.306;2023-01-29T11:12:19;100096.97;;;5.24;88.98
63405;BME280;49541;57.840;12.306;2023-01-29T11:17:22;100072.88;;;5.29;88.79
63405;BME280;49541;57.840;12.306;2023-01-29T11:22:25;100058.28;;;5.36;87.75
63405;BME280;49541;57.840;12.306;2023-01-29T11:27:26;100065.13;;;5.39;88.20
63405;BME280;49541;57.840;12.306;2023-01-29T11:32:29;100054.09;;;5.33;88.17
63405;BME280;49541;57.840;12.306;2023-01-29T11:37:38;100036.78;;;5.29;88.58
63405;BME280;49541;57.840;12.306;2023-01-29T11:42:38;100033.13;;;5.19;88.52
63405;BME280;49541;57.840;12.306;2023-01-29T11:47:39;100006.06;;;5.04;89.33
63405;BME280;49541;57.840;12.306;2023-01-29T11:52:39;100014.25;;;5.12;89.27
63405;BME280;49541;57.840;12.306;2023-01-29T11:57:41;100004.53;;;5.13;89.20
63405;BME280;49541;57.840;12.306;2023-01-29T12:02:43;99999.34;;;5.11;89.43
63405;BME280;49541;57.840;12.306;2023-01-29T12:07:45;99978.59;;;5.07;89.47
63405;BME280;49541;57.840;12.306;2023-01-29T12:12:47;99987.91;;;5.00;90.10
63405;BME280;49541;57.840;12.306;2023-01-29T12:18:10;99962.44;;;4.87;91.70
63405;BME280;49541;57.840;12.306;2023-01-29T12:28:20;99942.53;;;4.95;93.22
63405;BME280;49541;57.840;12.306;2023-01-29T12:38:37;99929.50;;;4.69;95.80
63405;BME280;49541;57.840;12.306;2023-01-29T12:43:47;99912.69;;;4.70;96.28
63405;BME280;49541;57.840;12.306;2023-01-29T12:48:48;99902.81;;;4.85;95.65
63405;BME280;49541;57.840;12.306;2023-01-29T12:53:54;99882.22;;;4.90;95.54
63405;BME280;49541;57.840;12.306;2023-01-29T12:58:56;99874.44;;;4.88;94.71
63405;BME280;49541;57.840;12.306;2023-01-29T13:03:59;99872.53;;;4.90;93.44
63405;BME280;49541;57.840;12.306;2023-01-29T13:09:02;99878.28;;;4.96;92.58
63405;BME280;49541;57.840;12.306;2023-01-29T13:14:17;99873.75;;;4.98;92.47
63405;BME280;49541;57.840;12.306;2023-01-29T13:19:26;99856.91;;;4.87;92.51
63405;BME280;49541;57.840;12.306;2023-01-29T13:24:32;99855.25;;;4.86;93.55
63405;BME280;49541;57.840;12.306;2023-01-29T13:29:33;99859.00;;;4.95;93.29
63405;BME280;49541;57.840;12.306;2023-01-29T13:34:34;99851.19;;;4.93;93.61
63405;BME280;49541;57.840;12.306;2023-01-29T13:39:36;99820.34;;;4.94;94.45
63405;BME280;49541;57.840;12.306;2023-01-29T13:44:46;99824.25;;;4.77;95.10
63405;BME280;49541;57.840;12.306;2023-01-29T13:50:00;99837.19;;;4.69;95.56
63405;BME280;49541;57.840;12.306;2023-01-29T14:00:08;99818.84;;;4.67;95.74
63405;BME280;49541;57.840;12.306;2023-01-29T14:10:33;99779.00;;;4.59;95.92
63405;BME280;49541;57.840;12.306;2023-01-29T14:15:35;99781.53;;;4.61;95.90
63405;BME280;49541;57.840;12.306;2023-01-29T14:21:19;99769.91;;;4.63;95.96
63405;BME280;49541;57.840;12.306;2023-01-29T14:25:59;99751.81;;;4.59;96.05
63405;BME280;49541;57.840;12.306;2023-01-29T14:31:00;99734.56;;;4.66;96.37
63405;BME280;49541;57.840;12.306;2023-01-29T14:36:05;99714.34;;;4.42;96.45
63405;BME280;49541;57.840;12.306;2023-01-29T14:41:13;99695.19;;;4.40;97.13
63405;BME280;49541;57.840;12.306;2023-01-29T14:47:01;99680.34;;;4.39;98.03
63405;BME280;49541;57.840;12.306;2023-01-29T14:51:37;99680.00;;;4.44;96.96
63405;BME280;49541;57.840;12.306;2023-01-29T14:56:56;99666.91;;;4.42;97.26
63405;BME280;49541;57.840;12.306;2023-01-29T15:02:03;99654.19;;;4.36;98.20
63405;BME280;49541;57.840;12.306;2023-01-29T15:17:15;99636.00;;;4.33;98.46
63405;BME280;49541;57.840;12.306;2023-01-29T15:22:18;99628.19;;;4.31;98.60
63405;BME280;49541;57.840;12.306;2023-01-29T15:27:18;99623.09;;;4.41;98.52
63405;BME280;49541;57.840;12.306;2023-01-29T15:32:23;99605.56;;;4.40;97.94
63405;BME280;49541;57.840;12.306;2023-01-29T15:37:30;99607.03;;;4.44;97.96
63405;BME280;49541;57.840;12.306;2023-01-29T15:42:40;99575.16;;;4.47;97.82
63405;BME280;49541;57.840;12.306;2023-01-29T15:47:41;99576.09;;;4.58;97.24
63405;BME280;49541;57.840;12.306;2023-01-29T15:52:41;99542.69;;;4.47;97.67
63405;BME280;49541;57.840;12.306;2023-01-29T15:57:41;99524.47;;;4.44;98.24
63405;BME280;49541;57.840;12.306;2023-01-29T16:02:42;99519.09;;;4.45;98.27
63405;BME280;49541;57.840;12.306;2023-01-29T16:07:43;99496.09;;;4.47;98.17
63405;BME280;49541;57.840;12.306;2023-01-29T16:12:44;99484.81;;;4.34;98.48
63405;BME280;49541;57.840;12.306;2023-01-29T16:17:50;99465.88;;;4.40;98.80
63405;BME280;49541;57.840;12.306;2023-01-29T16:22:50;99445.16;;;4.47;98.13
63405;BME280;49541;57.840;12.306;2023-01-29T16:27:51;99450.06;;;4.51;98.64
63405;BME280;49541;57.840;12.306;2023-01-29T16:32:52;99425.50;;;4.51;98.17
63405;BME280;49541;57.840;12.306;2023-01-29T16:37:52;99412.19;;;4.53;97.61
63405;BME280;49541;57.840;12.306;2023-01-29T16:43:05;99401.31;;;4.46;97.65
63405;BME280;49541;57.840;12.306;2023-01-29T16:48:29;99385.91;;;4.62;98.01
63405;BME280;49541;57.840;12.306;2023-01-29T16:53:30;99370.69;;;4.66;96.92
63405;BME280;49541;57.840;12.306;2023-01-29T16:58:30;99333.50;;;4.80;97.18
63405;BME280;49541;57.840;12.306;2023-01-29T17:03:31;99327.97;;;4.83;96.55
63405;BME280;49541;57.840;12.306;2023-01-29T17:08:32;99313.06;;;4.93;95.39
63405;BME280;49541;57.840;12.306;2023-01-29T17:13:40;99289.00;;;4.87;96.10
63405;BME280;49541;57.840;12.306;2023-01-29T17:18:44;99269.03;;;4.73;96.65
63405;BME280;49541;57.840;12.306;2023-01-29T17:23:44;99233.81;;;4.74;96.66
63405;BME280;49541;57.840;12.306;2023-01-29T17:28:44;99213.66;;;4.73;96.81
63405;BME280;49541;57.840;12.306;2023-01-29T17:33:44;99187.47;;;4.81;96.68
63405;BME280;49541;57.840;12.306;2023-01-29T17:38:45;99198.41;;;4.56;97.55
63405;BME280;49541;57.840;12.306;2023-01-29T17:43:45;99200.94;;;4.57;97.76
63405;BME280;49541;57.840;12.306;2023-01-29T17:48:45;99198.63;;;4.64;97.62
63405;BME280;49541;57.840;12.306;2023-01-29T17:53:45;99185.72;;;4.61;97.63
63405;BME280;49541;57.840;12.306;2023-01-29T17:58:46;99165.56;;;4.60;97.83
63405;BME280;49541;57.840;12.306;2023-01-29T18:03:46;99166.47;;;4.70;97.06
63405;BME280;49541;57.840;12.306;2023-01-29T18:08:46;99164.75;;;4.59;97.68
63405;BME280;49541;57.840;12.306;2023-01-29T18:13:46;99163.56;;;4.73;97.39
63405;BME280;49541;57.840;12.306;2023-01-29T18:18:47;99153.72;;;4.75;97.23
63405;BME280;49541;57.840;12.306;2023-01-29T18:23:47;99159.28;;;4.72;96.48
63405;BME280;49541;57.840;12.306;2023-01-29T18:28:48;99138.66;;;4.87;96.21
63405;BME280;49541;57.840;12.306;2023-01-29T18:33:48;99104.72;;;4.72;96.33
63405;BME280;49541;57.840;12.306;2023-01-29T18:38:48;99105.84;;;4.70;96.74
63405;BME280;49541;57.840;12.306;2023-01-29T18:43:48;99094.09;;;4.84;96.72
63405;BME280;49541;57.840;12.306;2023-01-29T18:48:51;99126.09;;;4.69;96.62
63405;BME280;49541;57.840;12.306;2023-01-29T18:53:51;99100.16;;;4.75;97.25
63405;BME280;49541;57.840;12.306;2023-01-29T18:58:55;99075.31;;;4.77;96.67
63405;BME280;49541;57.840;12.306;2023-01-29T19:03:55;99081.75;;;4.84;96.57
63405;BME280;49541;57.840;12.306;2023-01-29T19:08:58;99056.75;;;4.79;97.15
63405;BME280;49541;57.840;12.306;2023-01-29T19:13:58;99049.13;;;4.85;97.27
63405;BME280;49541;57.840;12.306;2023-01-29T19:18:58;99033.59;;;4.82;97.05
63405;BME280;49541;57.840;12.306;2023-01-29T19:23:58;99029.44;;;4.89;97.11
63405;BME280;49541;57.840;12.306;2023-01-29T19:28:59;99017.88;;;4.81;97.92
63405;BME280;49541;57.840;12.306;2023-01-29T19:33:59;99009.31;;;4.88;97.99
63405;BME280;49541;57.840;12.306;2023-01-29T19:39:00;98984.72;;;4.78;98.77
63405;BME280;49541;57.840;12.306;2023-01-29T19:44:00;98973.34;;;4.78;99.43
63405;BME280;49541;57.840;12.306;2023-01-29T19:49:00;98956.25;;;4.82;99.94
63405;BME280;49541;57.840;12.306;2023-01-29T19:54:02;98939.88;;;4.68;100.00
63405;BME280;49541;57.840;12.306;2023-01-29T19:59:03;98906.56;;;4.67;100.00
63405;BME280;49541;57.840;12.306;2023-01-29T20:04:04;98896.44;;;4.63;100.00
63405;BME280;49541;57.840;12.306;2023-01-29T20:09:04;98878.56;;;4.76;100.00
63405;BME280;49541;57.840;12.306;2023-01-29T20:14:05;98858.28;;;4.77;100.00
63405;BME280;49541;57.840;12.306;2023-01-29T20:19:05;98837.75;;;4.80;100.00
63405;BME280;49541;57.840;12.306;2023-01-29T20:24:05;98829.41;;;4.75;100.00
63405;BME280;49541;57.840;12.306;2023-01-29T20:29:06;98814.97;;;4.79;100.00
63405;BME280;49541;57.840;12.306;2023-01-29T20:34:06;98783.09;;;4.82;100.00
63405;BME280;49541;57.840;12.306;2023-01-29T20:39:06;98773.06;;;4.86;100.00
63405;BME280;49541;57.840;12.306;2023-01-29T20:44:06;98736.97;;;4.96;100.00
63405;BME280;49541;57.840;12.306;2023-01-29T20:49:07;98724.78;;;4.95;100.00
63405;BME280;49541;57.840;12.306;2023-01-29T20:54:07;98725.31;;;4.99;100.00
63405;BME280;49541;57.840;12.306;2023-01-29T20:59:08;98694.22;;;4.92;100.00
63405;BME280;49541;57.840;12.306;2023-01-29T21:04:08;98675.34;;;4.97;100.00
63405;BME280;49541;57.840;12.306;2023-01-29T21:09:08;98656.41;;;5.11;100.00
63405;BME280;49541;57.840;12.306;2023-01-29T21:14:08;98640.88;;;5.08;100.00
63405;BME280;49541;57.840;12.306;2023-01-29T21:19:11;98626.06;;;4.98;100.00
63405;BME280;49541;57.840;12.306;2023-01-29T21:24:11;98635.63;;;4.99;100.00
63405;BME280;49541;57.840;12.306;2023-01-29T21:29:13;98600.06;;;5.03;100.00
63405;BME280;49541;57.840;12.306;2023-01-29T21:34:14;98594.81;;;5.03;100.00
63405;BME280;49541;57.840;12.306;2023-01-29T21:39:14;98581.34;;;5.06;100.00
63405;BME280;49541;57.840;12.306;2023-01-29T21:44:19;98565.91;;;5.11;100.00
63405;BME280;49541;57.840;12.306;2023-01-29T21:49:19;98544.59;;;5.22;100.00
63405;BME280;49541;57.840;12.306;2023-01-29T21:54:20;98539.47;;;5.21;100.00
63405;BME280;49541;57.840;12.306;2023-01-29T21:59:20;98514.47;;;5.25;100.00
63405;BME280;49541;57.840;12.306;2023-01-29T22:04:20;98507.19;;;5.27;100.00
63405;BME280;49541;57.840;12.306;2023-01-29T22:09:20;98510.91;;;5.34;100.00
63405;BME280;49541;57.840;12.306;2023-01-29T22:14:21;98492.31;;;5.36;100.00
63405;BME280;49541;57.840;12.306;2023-01-29T22:19:21;98493.50;;;5.41;100.00
63405;BME280;49541;57.840;12.306;2023-01-29T22:24:22;98462.59;;;5.33;100.00
63405;BME280;49541;57.840;12.306;2023-01-29T22:29:22;98489.34;;;5.39;100.00
63405;BME280;49541;57.840;12.306;2023-01-29T22:34:22;98479.94;;;5.36;100.00
63405;BME280;49541;57.840;12.306;2023-01-29T22:39:23;98482.41;;;5.38;100.00
63405;BME280;49541;57.840;12.306;2023-01-29T22:44:23;98466.63;;;5.46;100.00
63405;BME280;49541;57.840;12.306;2023-01-29T22:49:23;98443.94;;;5.53;100.00
63405;BME280;49541;57.840;12.306;2023-01-29T22:54:24;98417.91;;;5.58;100.00
63405;BME280;49541;57.840;12.306;2023-01-29T22:59:24;98370.47;;;5.66;99.36
63405;BME280;49541;57.840;12.306;2023-01-29T23:04:25;98367.91;;;5.57;96.55
63405;BME280;49541;57.840;12.306;2023-01-29T23:09:25;98341.56;;;5.65;94.43
63405;BME280;49541;57.840;12.306;2023-01-29T23:14:25;98359.56;;;5.69;95.21
63405;BME280;49541;57.840;12.306;2023-01-29T23:19:25;98366.28;;;5.56;95.81
63405;BME280;49541;57.840;12.306;2023-01-29T23:24:26;98335.88;;;5.51;95.54
63405;BME280;49541;57.840;12.306;2023-01-29T23:29:26;98313.53;;;5.64;94.66
63405;BME280;49541;57.840;12.306;2023-01-29T23:34:26;98301.72;;;5.50;93.37
63405;BME280;49541;57.840;12.306;2023-01-29T23:39:26;98299.28;;;5.57;92.54
63405;BME280;49541;57.840;12.306;2023-01-29T23:44:26;98292.38;;;5.56;91.86
63405;BME280;49541;57.840;12.306;2023-01-29T23:49:27;98278.84;;;5.59;91.96
63405;BME280;49541;57.840;12.306;2023-01-29T23:54:27;98284.28;;;5.57;92.22
63405;BME280;49541;57.840;12.306;2023-01-29T23:59:27;98284.59;;;5.54;92.31
